sensor_id;sensor_type;location;lat;lon;timestamp;pressure;altitude;pressure_sealevel;temperature;humidity
42411;BME280;28056;51.112;0.984;2022-08-19T00:04:53;100527.07;;;20.27;54.48
42411;BME280;28056;51.112;0.984;2022-08-19T00:07:20;100523.05;;;19.79;55.34
42411;BME280;28056;51.112;0.984;2022-08-19T00:09:48;100524.10;;;18.81;57.53
42411;BME280;28056;51.112;0.984;2022-08-19T00:12:15;100513.34;;;20.02;55.26
42411;BME280;28056;51.112;0.984;2022-08-19T00:14:43;100513.21;;;19.12;57.44
42411;BME280;28056;51.112;0.984;2022-08-19T00:17:11;100510.86;;;20.15;55.14
42411;BME280;28056;51.112;0.984;2022-08-19T00:19:38;100509.57;;;20.39;55.11
42411;BME280;28056;51.112;0.984;2022-08-19T00:22:06;100518.27;;;18.61;58.91
42411;BME280;28056;51.112;0.984;2022-08-19T00:24:34;100515.77;;;20.06;55.64
42411;BME280;28056;51.112;0.984;2022-08-19T00:27:01;100517.06;;;20.42;54.90
42411;BME280;28056;51.112;0.984;2022-08-19T00:29:29;100519.08;;;20.63;54.72
42411;BME280;28056;51.112;0.984;2022-08-19T00:31:57;100520.11;;;20.83;54.11
42411;BME280;28056;51.112;0.984;2022-08-19T00:34:25;100526.29;;;20.97;53.60
42411;BME280;28056;51.112;0.984;2022-08-19T00:36:52;100530.75;;;20.26;55.00
42411;BME280;28056;51.112;0.984;2022-08-19T00:39:20;100531.51;;;19.78;56.33
42411;BME280;28056;51.112;0.984;2022-08-19T00:41:49;100526.33;;;20.28;55.84
42411;BME280;28056;51.112;0.984;2022-08-19T00:44:20;100527.89;;;20.27;55.34
42411;BME280;28056;51.112;0.984;2022-08-19T00:46:50;100527.45;;;20.80;54.51
42411;BME280;28056;51.112;0.984;2022-08-19T00:49:20;100530.75;;;20.69;54.57
42411;BME280;28056;51.112;0.984;2022-08-19T00:51:52;100531.05;;;20.71;54.76
42411;BME280;28056;51.112;0.984;2022-08-19T00:54:21;100528.12;;;20.43;55.43
42411;BME280;28056;51.112;0.984;2022-08-19T00:56:49;100525.18;;;20.43;55.87
42411;BME280;28056;51.112;0.984;2022-08-19T00:59:18;100530.06;;;19.39;57.97
42411;BME280;28056;51.112;0.984;2022-08-19T01:01:46;100536.11;;;19.08;59.10
42411;BME280;28056;51.112;0.984;2022-08-19T01:04:14;100526.04;;;20.38;56.28
42411;BME280;28056;51.112;0.984;2022-08-19T01:06:42;100530.96;;;20.36;56.64
42411;BME280;28056;51.112;0.984;2022-08-19T01:09:10;100528.94;;;20.24;56.78
42411;BME280;28056;51.112;0.984;2022-08-19T01:11:40;100524.74;;;20.02;56.83
42411;BME280;28056;51.112;0.984;2022-08-19T01:14:09;100518.94;;;19.18;59.25
42411;BME280;28056;51.112;0.984;2022-08-19T01:16:38;100511.03;;;20.49;56.41
42411;BME280;28056;51.112;0.984;2022-08-19T01:19:12;100509.01;;;21.10;54.75
42411;BME280;28056;51.112;0.984;2022-08-19T01:21:48;100503.34;;;20.81;55.43
42411;BME280;28056;51.112;0.984;2022-08-19T01:24:19;100503.43;;;21.17;54.82
42411;BME280;28056;51.112;0.984;2022-08-19T01:26:46;100508.12;;;20.74;55.31
42411;BME280;28056;51.112;0.984;2022-08-19T01:29:15;100512.69;;;20.35;56.94
42411;BME280;28056;51.112;0.984;2022-08-19T01:31:42;100512.31;;;20.53;55.81
42411;BME280;28056;51.112;0.984;2022-08-19T01:34:10;100514.04;;;19.35;58.39
42411;BME280;28056;51.112;0.984;2022-08-19T01:36:39;100516.57;;;19.71;58.71
42411;BME280;28056;51.112;0.984;2022-08-19T01:39:11;100518.41;;;19.67;59.34
42411;BME280;28056;51.112;0.984;2022-08-19T01:41:39;100519.36;;;19.63;59.21
42411;BME280;28056;51.112;0.984;2022-08-19T01:44:08;100518.39;;;20.12;58.62
42411;BME280;28056;51.112;0.984;2022-08-19T01:46:36;100525.30;;;18.87;61.32
42411;BME280;28056;51.112;0.984;2022-08-19T01:49:05;100519.57;;;20.25;58.23
42411;BME280;28056;51.112;0.984;2022-08-19T01:51:33;100518.31;;;21.16;56.25
42411;BME280;28056;51.112;0.984;2022-08-19T01:54:01;100517.76;;;21.27;56.02
42411;BME280;28056;51.112;0.984;2022-08-19T01:56:28;100511.42;;;21.02;56.24
42411;BME280;28056;51.112;0.984;2022-08-19T01:59:00;100510.23;;;21.00;56.21
42411;BME280;28056;51.112;0.984;2022-08-19T02:01:29;100509.85;;;20.91;56.55
42411;BME280;28056;51.112;0.984;2022-08-19T02:03:56;100507.33;;;20.92;56.38
42411;BME280;28056;51.112;0.984;2022-08-19T02:06:24;100510.02;;;21.72;55.16
42411;BME280;28056;51.112;0.984;2022-08-19T02:08:52;100507.90;;;21.46;55.22
42411;BME280;28056;51.112;0.984;2022-08-19T02:11:21;100507.63;;;21.38;54.69
42411;BME280;28056;51.112;0.984;2022-08-19T02:13:49;100504.62;;;21.98;54.03
42411;BME280;28056;51.112;0.984;2022-08-19T02:16:17;100508.02;;;21.48;54.94
42411;BME280;28056;51.112;0.984;2022-08-19T02:18:45;100508.67;;;21.51;54.65
42411;BME280;28056;51.112;0.984;2022-08-19T02:21:12;100510.43;;;21.42;55.59
42411;BME280;28056;51.112;0.984;2022-08-19T02:23:39;100507.59;;;21.73;54.06
42411;BME280;28056;51.112;0.984;2022-08-19T02:26:08;100511.89;;;21.35;54.83
42411;BME280;28056;51.112;0.984;2022-08-19T02:28:36;100509.75;;;22.08;53.36
42411;BME280;28056;51.112;0.984;2022-08-19T02:31:08;100508.08;;;21.90;53.88
42411;BME280;28056;51.112;0.984;2022-08-19T02:33:36;100507.44;;;22.06;53.42
42411;BME280;28056;51.112;0.984;2022-08-19T02:36:03;100511.13;;;21.96;53.39
42411;BME280;28056;51.112;0.984;2022-08-19T02:38:53;100515.16;;;21.46;54.57
42411;BME280;28056;51.112;0.984;2022-08-19T02:41:23;100511.95;;;21.91;53.97
42411;BME280;28056;51.112;0.984;2022-08-19T02:43:50;100508.82;;;21.77;54.29
42411;BME280;28056;51.112;0.984;2022-08-19T02:46:21;100511.50;;;20.92;56.51
42411;BME280;28056;51.112;0.984;2022-08-19T02:48:50;100504.17;;;21.74;54.92
42411;BME280;28056;51.112;0.984;2022-08-19T02:51:19;100501.82;;;22.16;53.70
42411;BME280;28056;51.112;0.984;2022-08-19T02:53:47;100506.13;;;22.17;53.03
42411;BME280;28056;51.112;0.984;2022-08-19T02:56:14;100506.45;;;22.45;52.92
42411;BME280;28056;51.112;0.984;2022-08-19T02:58:41;100505.04;;;22.19;53.57
42411;BME280;28056;51.112;0.984;2022-08-19T03:01:09;100510.85;;;22.37;53.47
42411;BME280;28056;51.112;0.984;2022-08-19T03:03:36;100508.64;;;22.55;53.02
42411;BME280;28056;51.112;0.984;2022-08-19T03:06:06;100508.06;;;22.54;52.59
42411;BME280;28056;51.112;0.984;2022-08-19T03:08:34;100505.69;;;21.45;54.49
42411;BME280;28056;51.112;0.984;2022-08-19T03:11:01;100504.98;;;22.43;53.21
42411;BME280;28056;51.112;0.984;2022-08-19T03:13:28;100503.27;;;22.44;53.47
42411;BME280;28056;51.112;0.984;2022-08-19T03:15:56;100500.25;;;20.77;57.24
42411;BME280;28056;51.112;0.984;2022-08-19T03:18:23;100495.57;;;20.38;58.05
42411;BME280;28056;51.112;0.984;2022-08-19T03:24:08;100490.69;;;22.54;54.71
42411;BME280;28056;51.112;0.984;2022-08-19T03:26:39;100495.20;;;20.63;57.83
42411;BME280;28056;51.112;0.984;2022-08-19T03:29:07;100495.03;;;21.60;56.24
42411;BME280;28056;51.112;0.984;2022-08-19T03:31:35;100495.08;;;21.74;55.96
42411;BME280;28056;51.112;0.984;2022-08-19T03:34:03;100498.74;;;20.96;58.00
42411;BME280;28056;51.112;0.984;2022-08-19T03:36:30;100495.46;;;21.21;56.90
42411;BME280;28056;51.112;0.984;2022-08-19T03:39:02;100495.99;;;21.44;55.86
42411;BME280;28056;51.112;0.984;2022-08-19T03:41:32;100495.17;;;21.81;55.57
42411;BME280;28056;51.112;0.984;2022-08-19T03:44:00;100497.47;;;21.99;55.12
42411;BME280;28056;51.112;0.984;2022-08-19T03:46:30;100494.39;;;22.04;55.03
42411;BME280;28056;51.112;0.984;2022-08-19T03:49:00;100498.93;;;21.06;57.38
42411;BME280;28056;51.112;0.984;2022-08-19T03:51:30;100499.73;;;20.65;58.28
42411;BME280;28056;51.112;0.984;2022-08-19T03:53:59;100500.69;;;21.09;57.61
42411;BME280;28056;51.112;0.984;2022-08-19T03:56:28;100502.20;;;21.97;57.00
42411;BME280;28056;51.112;0.984;2022-08-19T03:58:57;100496.63;;;21.49;57.13
42411;BME280;28056;51.112;0.984;2022-08-19T04:01:27;100495.62;;;21.29;57.42
42411;BME280;28056;51.112;0.984;2022-08-19T04:03:56;100492.41;;;21.15;57.47
42411;BME280;28056;51.112;0.984;2022-08-19T04:06:26;100487.88;;;20.78;58.24
42411;BME280;28056;51.112;0.984;2022-08-19T04:08:55;100489.66;;;21.11;57.77
42411;BME280;28056;51.112;0.984;2022-08-19T04:11:25;100482.43;;;21.69;55.99
42411;BME280;28056;51.112;0.984;2022-08-19T04:13:54;100484.84;;;21.71;55.92
42411;BME280;28056;51.112;0.984;2022-08-19T04:16:24;100486.40;;;21.75;55.79
42411;BME280;28056;51.112;0.984;2022-08-19T04:18:52;100487.36;;;22.07;55.46
42411;BME280;28056;51.112;0.984;2022-08-19T04:21:22;100489.76;;;22.15;55.17
42411;BME280;28056;51.112;0.984;2022-08-19T04:23:50;100490.36;;;20.18;59.82
42411;BME280;28056;51.112;0.984;2022-08-19T04:26:20;100494.30;;;21.33;57.45
42411;BME280;28056;51.112;0.984;2022-08-19T04:28:48;100495.83;;;20.61;59.18
42411;BME280;28056;51.112;0.984;2022-08-19T04:31:18;100492.42;;;20.76;59.04
42411;BME280;28056;51.112;0.984;2022-08-19T04:33:45;100493.40;;;21.57;56.95
42411;BME280;28056;51.112;0.984;2022-08-19T04:36:17;100491.30;;;21.58;56.95
42411;BME280;28056;51.112;0.984;2022-08-19T04:38:45;100493.66;;;21.27;57.29
42411;BME280;28056;51.112;0.984;2022-08-19T04:41:13;100494.78;;;21.46;57.47
42411;BME280;28056;51.112;0.984;2022-08-19T04:43:40;100493.98;;;21.06;59.13
42411;BME280;28056;51.112;0.984;2022-08-19T04:46:10;100496.63;;;21.13;57.92
42411;BME280;28056;51.112;0.984;2022-08-19T04:48:39;100491.74;;;21.92;56.16
42411;BME280;28056;51.112;0.984;2022-08-19T04:51:09;100494.91;;;21.21;56.96
42411;BME280;28056;51.112;0.984;2022-08-19T04:53:38;100497.93;;;21.38;57.36
42411;BME280;28056;51.112;0.984;2022-08-19T04:56:09;100501.47;;;21.21;57.72
42411;BME280;28056;51.112;0.984;2022-08-19T04:58:37;100504.48;;;20.72;58.84
42411;BME280;28056;51.112;0.984;2022-08-19T05:01:05;100501.90;;;20.62;59.84
42411;BME280;28056;51.112;0.984;2022-08-19T05:03:34;100509.69;;;20.56;61.10
42411;BME280;28056;51.112;0.984;2022-08-19T05:06:05;100512.73;;;20.86;59.35
42411;BME280;28056;51.112;0.984;2022-08-19T05:08:33;100515.46;;;20.03;61.14
42411;BME280;28056;51.112;0.984;2022-08-19T05:11:00;100513.86;;;20.39;60.51
42411;BME280;28056;51.112;0.984;2022-08-19T05:13:28;100518.87;;;21.02;59.68
42411;BME280;28056;51.112;0.984;2022-08-19T05:15:57;100517.77;;;20.96;59.35
42411;BME280;28056;51.112;0.984;2022-08-19T05:18:25;100509.65;;;20.80;60.49
42411;BME280;28056;51.112;0.984;2022-08-19T05:20:52;100511.74;;;20.34;62.06
42411;BME280;28056;51.112;0.984;2022-08-19T05:23:19;100515.44;;;21.34;59.65
42411;BME280;28056;51.112;0.984;2022-08-19T05:25:47;100516.37;;;20.60;61.40
42411;BME280;28056;51.112;0.984;2022-08-19T05:28:14;100514.07;;;21.25;59.41
42411;BME280;28056;51.112;0.984;2022-08-19T05:30:42;100512.00;;;20.80;60.37
42411;BME280;28056;51.112;0.984;2022-08-19T05:33:09;100509.86;;;20.19;61.04
42411;BME280;28056;51.112;0.984;2022-08-19T05:35:38;100514.45;;;20.96;60.49
42411;BME280;28056;51.112;0.984;2022-08-19T05:38:06;100515.07;;;21.50;59.68
42411;BME280;28056;51.112;0.984;2022-08-19T05:40:34;100512.59;;;20.80;61.35
42411;BME280;28056;51.112;0.984;2022-08-19T05:43:02;100514.90;;;20.19;62.80
42411;BME280;28056;51.112;0.984;2022-08-19T05:45:29;100509.45;;;20.92;60.67
42411;BME280;28056;51.112;0.984;2022-08-19T05:47:57;100507.59;;;20.99;61.05
42411;BME280;28056;51.112;0.984;2022-08-19T05:50:25;100516.72;;;20.01;63.72
42411;BME280;28056;51.112;0.984;2022-08-19T05:52:52;100516.85;;;19.82;64.07
42411;BME280;28056;51.112;0.984;2022-08-19T05:55:20;100523.27;;;19.84;64.02
42411;BME280;28056;51.112;0.984;2022-08-19T05:57:47;100524.06;;;19.13;65.15
42411;BME280;28056;51.112;0.984;2022-08-19T06:00:16;100523.18;;;20.35;63.27
42411;BME280;28056;51.112;0.984;2022-08-19T06:02:43;100523.77;;;19.83;64.07
42411;BME280;28056;51.112;0.984;2022-08-19T06:05:11;100516.49;;;20.88;61.88
42411;BME280;28056;51.112;0.984;2022-08-19T06:07:39;100526.72;;;18.47;67.76
42411;BME280;28056;51.112;0.984;2022-08-19T06:10:10;100524.74;;;20.19;63.94
42411;BME280;28056;51.112;0.984;2022-08-19T06:12:38;100528.73;;;19.47;65.91
42411;BME280;28056;51.112;0.984;2022-08-19T06:15:08;100530.72;;;20.55;63.43
42411;BME280;28056;51.112;0.984;2022-08-19T06:17:36;100532.43;;;20.09;63.34
42411;BME280;28056;51.112;0.984;2022-08-19T06:20:04;100532.49;;;19.66;65.60
42411;BME280;28056;51.112;0.984;2022-08-19T06:22:37;100534.86;;;19.37;65.73
42411;BME280;28056;51.112;0.984;2022-08-19T06:25:06;100532.54;;;19.68;66.35
42411;BME280;28056;51.112;0.984;2022-08-19T06:27:35;100530.22;;;20.05;64.12
42411;BME280;28056;51.112;0.984;2022-08-19T06:30:04;100531.33;;;20.19;63.74
42411;BME280;28056;51.112;0.984;2022-08-19T06:32:31;100530.85;;;21.28;61.21
42411;BME280;28056;51.112;0.984;2022-08-19T06:34:59;100527.84;;;21.05;61.24
42411;BME280;28056;51.112;0.984;2022-08-19T06:37:26;100525.30;;;20.80;62.51
42411;BME280;28056;51.112;0.984;2022-08-19T06:39:54;100526.31;;;21.72;59.83
42411;BME280;28056;51.112;0.984;2022-08-19T06:42:21;100526.86;;;20.73;60.86
42411;BME280;28056;51.112;0.984;2022-08-19T06:44:49;100529.10;;;21.53;58.93
42411;BME280;28056;51.112;0.984;2022-08-19T06:47:19;100525.81;;;20.76;61.91
42411;BME280;28056;51.112;0.984;2022-08-19T06:49:47;100521.82;;;20.28;62.94
42411;BME280;28056;51.112;0.984;2022-08-19T06:52:16;100518.51;;;20.63;61.05
42411;BME280;28056;51.112;0.984;2022-08-19T06:54:43;100526.48;;;19.95;62.83
42411;BME280;28056;51.112;0.984;2022-08-19T06:57:11;100527.31;;;20.66;62.54
42411;BME280;28056;51.112;0.984;2022-08-19T06:59:38;100530.59;;;20.59;61.41
42411;BME280;28056;51.112;0.984;2022-08-19T07:02:06;100528.89;;;20.48;62.10
42411;BME280;28056;51.112;0.984;2022-08-19T07:04:36;100526.62;;;20.08;62.68
42411;BME280;28056;51.112;0.984;2022-08-19T07:07:06;100529.22;;;19.91;63.77
42411;BME280;28056;51.112;0.984;2022-08-19T07:09:35;100531.82;;;20.16;62.77
42411;BME280;28056;51.112;0.984;2022-08-19T07:12:04;100539.23;;;18.67;66.78
42411;BME280;28056;51.112;0.984;2022-08-19T07:14:33;100540.61;;;19.08;65.93
42411;BME280;28056;51.112;0.984;2022-08-19T07:17:00;100543.40;;;19.61;64.99
42411;BME280;28056;51.112;0.984;2022-08-19T07:19:29;100547.43;;;21.08;60.82
42411;BME280;28056;51.112;0.984;2022-08-19T07:21:57;100555.01;;;20.37;61.31
42411;BME280;28056;51.112;0.984;2022-08-19T07:24:25;100555.36;;;20.85;60.23
42411;BME280;28056;51.112;0.984;2022-08-19T07:26:54;100556.38;;;19.74;64.05
42411;BME280;28056;51.112;0.984;2022-08-19T07:29:23;100551.68;;;20.24;62.57
42411;BME280;28056;51.112;0.984;2022-08-19T07:31:51;100555.16;;;19.00;64.71
42411;BME280;28056;51.112;0.984;2022-08-19T07:34:18;100550.71;;;20.46;62.19
42411;BME280;28056;51.112;0.984;2022-08-19T07:36:46;100555.61;;;19.17;64.92
42411;BME280;28056;51.112;0.984;2022-08-19T07:39:16;100552.68;;;18.77;65.66
42411;BME280;28056;51.112;0.984;2022-08-19T07:41:44;100558.48;;;18.84;66.74
42411;BME280;28056;51.112;0.984;2022-08-19T07:44:14;100560.91;;;19.52;64.82
42411;BME280;28056;51.112;0.984;2022-08-19T07:46:44;100556.41;;;20.07;62.76
42411;BME280;28056;51.112;0.984;2022-08-19T07:49:12;100562.02;;;18.37;66.11
42411;BME280;28056;51.112;0.984;2022-08-19T07:51:40;100564.83;;;18.54;66.97
42411;BME280;28056;51.112;0.984;2022-08-19T07:54:09;100568.17;;;18.89;65.47
42411;BME280;28056;51.112;0.984;2022-08-19T07:56:37;100562.92;;;18.71;65.79
42411;BME280;28056;51.112;0.984;2022-08-19T07:59:04;100564.22;;;18.40;67.86
42411;BME280;28056;51.112;0.984;2022-08-19T08:01:32;100564.34;;;18.44;67.16
42411;BME280;28056;51.112;0.984;2022-08-19T08:03:59;100561.35;;;18.57;66.49
42411;BME280;28056;51.112;0.984;2022-08-19T08:06:27;100564.76;;;19.23;65.78
42411;BME280;28056;51.112;0.984;2022-08-19T08:08:54;100563.29;;;19.04;64.86
42411;BME280;28056;51.112;0.984;2022-08-19T08:11:22;100563.57;;;19.16;64.98
42411;BME280;28056;51.112;0.984;2022-08-19T08:13:49;100563.77;;;18.78;65.60
42411;BME280;28056;51.112;0.984;2022-08-19T08:16:17;100567.50;;;18.89;65.09
42411;BME280;28056;51.112;0.984;2022-08-19T08:18:44;100564.08;;;20.08;61.71
42411;BME280;28056;51.112;0.984;2022-08-19T08:21:12;100563.43;;;19.89;62.00
42411;BME280;28056;51.112;0.984;2022-08-19T08:23:39;100562.48;;;19.95;60.52
42411;BME280;28056;51.112;0.984;2022-08-19T08:26:07;100567.87;;;19.29;61.87
42411;BME280;28056;51.112;0.984;2022-08-19T08:28:34;100568.48;;;19.88;59.98
42411;BME280;28056;51.112;0.984;2022-08-19T08:31:02;100574.28;;;18.49;63.60
42411;BME280;28056;51.112;0.984;2022-08-19T08:33:30;100573.79;;;18.94;63.99
42411;BME280;28056;51.112;0.984;2022-08-19T08:35:57;100573.58;;;18.91;63.83
42411;BME280;28056;51.112;0.984;2022-08-19T08:38:24;100576.82;;;18.94;63.23
42411;BME280;28056;51.112;0.984;2022-08-19T08:40:56;100575.04;;;19.65;62.38
42411;BME280;28056;51.112;0.984;2022-08-19T08:43:29;100576.73;;;19.45;62.10
42411;BME280;28056;51.112;0.984;2022-08-19T08:46:01;100579.24;;;19.31;63.14
42411;BME280;28056;51.112;0.984;2022-08-19T08:48:37;100580.99;;;19.33;62.61
42411;BME280;28056;51.112;0.984;2022-08-19T08:51:10;100578.09;;;19.24;62.08
42411;BME280;28056;51.112;0.984;2022-08-19T08:53:40;100573.57;;;18.95;61.27
42411;BME280;28056;51.112;0.984;2022-08-19T08:56:10;100576.85;;;18.77;59.56
42411;BME280;28056;51.112;0.984;2022-08-19T08:58:44;100578.21;;;18.85;59.28
42411;BME280;28056;51.112;0.984;2022-08-19T09:01:14;100575.71;;;19.09;57.21
42411;BME280;28056;51.112;0.984;2022-08-19T09:03:42;100574.68;;;19.43;57.05
42411;BME280;28056;51.112;0.984;2022-08-19T09:06:14;100572.98;;;19.81;55.06
42411;BME280;28056;51.112;0.984;2022-08-19T09:08:48;100572.45;;;20.01;55.18
42411;BME280;28056;51.112;0.984;2022-08-19T09:11:24;100568.68;;;20.29;52.80
42411;BME280;28056;51.112;0.984;2022-08-19T09:14:08;100566.97;;;20.07;52.67
42411;BME280;28056;51.112;0.984;2022-08-19T09:16:39;100574.23;;;19.38;52.41
42411;BME280;28056;51.112;0.984;2022-08-19T09:19:08;100573.72;;;19.97;51.36
42411;BME280;28056;51.112;0.984;2022-08-19T09:21:35;100569.90;;;20.72;49.07
42411;BME280;28056;51.112;0.984;2022-08-19T09:24:04;100572.76;;;20.00;49.59
42411;BME280;28056;51.112;0.984;2022-08-19T09:26:32;100577.33;;;21.10;49.24
42411;BME280;28056;51.112;0.984;2022-08-19T09:29:00;100580.88;;;21.34;47.59
42411;BME280;28056;51.112;0.984;2022-08-19T09:31:28;100575.17;;;21.06;47.92
42411;BME280;28056;51.112;0.984;2022-08-19T09:33:56;100578.81;;;20.98;48.06
42411;BME280;28056;51.112;0.984;2022-08-19T09:36:25;100581.63;;;22.05;46.08
42411;BME280;28056;51.112;0.984;2022-08-19T09:38:55;100585.29;;;21.46;47.73
42411;BME280;28056;51.112;0.984;2022-08-19T09:41:24;100587.53;;;21.40;47.41
42411;BME280;28056;51.112;0.984;2022-08-19T09:43:53;100583.25;;;21.95;46.22
42411;BME280;28056;51.112;0.984;2022-08-19T09:46:22;100584.19;;;23.29;44.88
42411;BME280;28056;51.112;0.984;2022-08-19T09:48:51;100587.65;;;23.54;44.26
42411;BME280;28056;51.112;0.984;2022-08-19T09:51:22;100587.81;;;23.59;43.47
42411;BME280;28056;51.112;0.984;2022-08-19T09:53:51;100588.65;;;22.17;45.47
42411;BME280;28056;51.112;0.984;2022-08-19T09:56:22;100587.57;;;22.74;45.28
42411;BME280;28056;51.112;0.984;2022-08-19T09:58:50;100581.82;;;23.36;44.11
42411;BME280;28056;51.112;0.984;2022-08-19T10:01:19;100580.46;;;22.99;45.08
42411;BME280;28056;51.112;0.984;2022-08-19T10:03:49;100580.90;;;22.01;47.11
42411;BME280;28056;51.112;0.984;2022-08-19T10:06:17;100582.65;;;22.60;46.52
42411;BME280;28056;51.112;0.984;2022-08-19T10:08:46;100588.26;;;24.43;43.82
42411;BME280;28056;51.112;0.984;2022-08-19T10:11:15;100589.82;;;24.74;43.35
42411;BME280;28056;51.112;0.984;2022-08-19T10:13:43;100592.30;;;24.62;43.42
42411;BME280;28056;51.112;0.984;2022-08-19T10:16:15;100588.46;;;24.77;43.15
42411;BME280;28056;51.112;0.984;2022-08-19T10:18:43;100590.28;;;24.95;43.09
42411;BME280;28056;51.112;0.984;2022-08-19T10:21:13;100589.40;;;24.91;44.00
42411;BME280;28056;51.112;0.984;2022-08-19T10:23:44;100590.13;;;25.53;42.15
42411;BME280;28056;51.112;0.984;2022-08-19T10:26:13;100585.70;;;25.40;42.43
42411;BME280;28056;51.112;0.984;2022-08-19T10:28:41;100584.34;;;24.93;42.35
42411;BME280;28056;51.112;0.984;2022-08-19T10:31:12;100586.25;;;25.08;42.17
42411;BME280;28056;51.112;0.984;2022-08-19T10:33:40;100578.71;;;24.64;42.38
42411;BME280;28056;51.112;0.984;2022-08-19T10:36:11;100577.96;;;25.57;41.78
42411;BME280;28056;51.112;0.984;2022-08-19T10:38:39;100575.21;;;25.59;42.48
42411;BME280;28056;51.112;0.984;2022-08-19T10:41:08;100580.21;;;24.22;43.86
42411;BME280;28056;51.112;0.984;2022-08-19T10:43:35;100577.10;;;25.26;42.03
42411;BME280;28056;51.112;0.984;2022-08-19T10:46:03;100575.37;;;26.11;40.22
42411;BME280;28056;51.112;0.984;2022-08-19T10:48:31;100575.47;;;25.82;40.73
42411;BME280;28056;51.112;0.984;2022-08-19T10:50:59;100578.04;;;25.52;40.66
42411;BME280;28056;51.112;0.984;2022-08-19T10:53:26;100577.99;;;26.17;39.29
42411;BME280;28056;51.112;0.984;2022-08-19T10:55:53;100577.23;;;24.83;41.40
42411;BME280;28056;51.112;0.984;2022-08-19T10:58:22;100582.40;;;25.20;41.65
42411;BME280;28056;51.112;0.984;2022-08-19T11:00:52;100584.05;;;25.91;40.85
42411;BME280;28056;51.112;0.984;2022-08-19T11:03:21;100590.20;;;24.06;43.64
42411;BME280;28056;51.112;0.984;2022-08-19T11:05:58;100589.01;;;24.62;44.55
42411;BME280;28056;51.112;0.984;2022-08-19T11:08:25;100597.39;;;23.96;46.88
42411;BME280;28056;51.112;0.984;2022-08-19T11:10:54;100592.32;;;24.62;46.11
42411;BME280;28056;51.112;0.984;2022-08-19T11:13:22;100600.80;;;23.79;48.73
42411;BME280;28056;51.112;0.984;2022-08-19T11:15:58;100588.92;;;23.03;50.44
42411;BME280;28056;51.112;0.984;2022-08-19T11:18:25;100593.96;;;22.53;51.81
42411;BME280;28056;51.112;0.984;2022-08-19T11:20:52;100595.57;;;23.39;50.30
42411;BME280;28056;51.112;0.984;2022-08-19T11:23:20;100594.36;;;22.29;52.62
42411;BME280;28056;51.112;0.984;2022-08-19T11:25:47;100597.35;;;22.91;51.87
42411;BME280;28056;51.112;0.984;2022-08-19T11:28:16;100593.18;;;22.46;53.10
42411;BME280;28056;51.112;0.984;2022-08-19T11:30:43;100597.83;;;22.32;55.99
42411;BME280;28056;51.112;0.984;2022-08-19T11:33:10;100598.74;;;21.17;58.81
42411;BME280;28056;51.112;0.984;2022-08-19T11:35:39;100602.92;;;22.07;56.99
42411;BME280;28056;51.112;0.984;2022-08-19T11:38:06;100601.55;;;21.30;59.25
42411;BME280;28056;51.112;0.984;2022-08-19T11:40:34;100605.70;;;21.21;59.78
42411;BME280;28056;51.112;0.984;2022-08-19T11:43:01;100606.28;;;21.60;60.10
42411;BME280;28056;51.112;0.984;2022-08-19T11:45:29;100606.49;;;20.74;62.49
42411;BME280;28056;51.112;0.984;2022-08-19T11:47:57;100614.14;;;22.02;60.05
42411;BME280;28056;51.112;0.984;2022-08-19T11:50:24;100609.43;;;21.16;61.16
42411;BME280;28056;51.112;0.984;2022-08-19T11:52:55;100616.78;;;21.81;59.19
42411;BME280;28056;51.112;0.984;2022-08-19T11:55:23;100620.46;;;20.62;61.31
42411;BME280;28056;51.112;0.984;2022-08-19T11:57:50;100620.67;;;21.30;60.58
42411;BME280;28056;51.112;0.984;2022-08-19T12:00:18;100618.81;;;21.18;60.75
42411;BME280;28056;51.112;0.984;2022-08-19T12:02:46;100623.43;;;21.39;59.75
42411;BME280;28056;51.112;0.984;2022-08-19T12:05:14;100623.89;;;21.83;60.23
42411;BME280;28056;51.112;0.984;2022-08-19T12:07:41;100625.35;;;21.99;58.63
42411;BME280;28056;51.112;0.984;2022-08-19T12:10:09;100625.05;;;22.66;58.06
42411;BME280;28056;51.112;0.984;2022-08-19T12:12:37;100626.60;;;21.79;60.82
42411;BME280;28056;51.112;0.984;2022-08-19T12:15:06;100627.88;;;22.24;60.15
42411;BME280;28056;51.112;0.984;2022-08-19T12:17:33;100621.71;;;22.10;61.73
42411;BME280;28056;51.112;0.984;2022-08-19T12:20:00;100618.69;;;22.40;62.75
42411;BME280;28056;51.112;0.984;2022-08-19T12:22:28;100614.62;;;22.31;60.18
42411;BME280;28056;51.112;0.984;2022-08-19T12:24:55;100613.44;;;23.21;59.91
42411;BME280;28056;51.112;0.984;2022-08-19T12:27:23;100607.77;;;22.65;58.64
42411;BME280;28056;51.112;0.984;2022-08-19T12:29:50;100610.81;;;22.95;58.23
42411;BME280;28056;51.112;0.984;2022-08-19T12:32:18;100608.89;;;23.82;57.29
42411;BME280;28056;51.112;0.984;2022-08-19T12:34:45;100610.98;;;24.14;56.22
42411;BME280;28056;51.112;0.984;2022-08-19T12:37:13;100609.73;;;22.70;57.42
42411;BME280;28056;51.112;0.984;2022-08-19T12:39:42;100605.87;;;23.12;57.34
42411;BME280;28056;51.112;0.984;2022-08-19T12:42:10;100596.46;;;23.00;56.62
42411;BME280;28056;51.112;0.984;2022-08-19T12:44:40;100595.28;;;21.61;58.20
42411;BME280;28056;51.112;0.984;2022-08-19T12:47:09;100591.22;;;21.55;59.75
42411;BME280;28056;51.112;0.984;2022-08-19T12:49:40;100592.59;;;22.30;58.13
42411;BME280;28056;51.112;0.984;2022-08-19T12:52:08;100598.84;;;21.24;59.67
42411;BME280;28056;51.112;0.984;2022-08-19T12:54:36;100600.38;;;20.99;58.98
42411;BME280;28056;51.112;0.984;2022-08-19T12:57:06;100601.05;;;20.76;61.22
42411;BME280;28056;51.112;0.984;2022-08-19T12:59:34;100594.86;;;20.92;62.18
42411;BME280;28056;51.112;0.984;2022-08-19T13:02:04;100596.32;;;20.39;63.36
42411;BME280;28056;51.112;0.984;2022-08-19T13:04:38;100599.21;;;20.72;62.88